Weather at Bern Belp Airport

Public forecast

Using degrees Celsius for public forecast. Weather courtesy of forecast.io.

Current aviation weather report (METAR) for Bern Belp Airport

Retrieved 2022/01/17 02:50 UTC (20 minutes ago):

LSZB 170250Z AUTO 15003KT 7000 BKN050 M01/M02 Q1033

Closest aviation forecast (TAF) to Bern Belp Airport

Forecast is more than 6 hours old.

Closest forecast is Payerne Air Base, 24.3 nm (44.9 km) W. Retrieved 2022/01/16 17:00 UTC (10 hours ago):

TAF LSMP 161625Z 1617/1723 VRB02KT 0300 FZFG SCT002 BECMG 1620/1622 9999 SCT050 BKN070